createdAt,value
2022-10-05T14:17:45.238Z,101874.20
2022-10-05T14:20:38.064Z,101872.60
2022-10-05T14:25:17.795Z,101869.60
2022-10-05T14:28:28.734Z,101865.80
2022-10-05T14:31:13.964Z,101863.80
2022-10-05T14:33:51.369Z,101863.00
2022-10-05T14:36:44.429Z,101859.40
2022-10-05T14:39:29.991Z,101856.20
2022-10-05T14:42:19.923Z,101856.20
2022-10-05T14:45:18.169Z,101852.80
2022-10-05T14:48:05.578Z,101852.20
2022-10-05T14:50:56.224Z,101849.40
2022-10-05T14:53:43.370Z,101842.60
2022-10-05T14:56:49.094Z,101838.00
2022-10-05T15:00:07.432Z,101839.00
2022-10-05T15:03:32.190Z,101839.00
2022-10-05T15:06:16.739Z,101837.00
2022-10-05T15:09:17.562Z,101835.40
2022-10-05T15:12:00.039Z,101835.20
2022-10-05T15:14:44.122Z,101836.00
2022-10-05T15:17:29.348Z,101836.20
2022-10-05T15:20:21.297Z,101832.40
2022-10-05T15:23:09.741Z,101830.60
2022-10-05T15:26:04.148Z,101829.80
2022-10-05T15:28:49.086Z,101828.60
2022-10-05T15:31:39.647Z,101829.40
2022-10-05T15:34:27.582Z,101827.80
2022-10-05T15:37:18.800Z,101828.20
2022-10-05T15:40:01.872Z,101828.80
2022-10-05T15:42:43.142Z,101828.20
2022-10-05T15:45:32.596Z,101828.20
2022-10-05T15:48:17.984Z,101827.60
2022-10-05T15:51:08.456Z,101826.80
2022-10-05T15:54:16.774Z,101825.40
2022-10-05T15:57:00.675Z,101827.20
2022-10-05T15:59:51.313Z,101828.80
2022-10-05T16:02:44.022Z,101838.00
2022-10-05T16:06:04.529Z,101842.40
2022-10-05T16:09:12.793Z,101840.80
2022-10-05T16:12:16.311Z,101842.80
2022-10-05T16:15:07.689Z,101846.20
2022-10-05T16:18:16.299Z,101847.60
2022-10-05T16:21:00.140Z,101850.80
2022-10-05T16:23:52.403Z,101852.00
2022-10-05T16:26:43.921Z,101849.80
2022-10-05T16:29:34.385Z,101850.00
2022-10-05T16:32:19.493Z,101851.80
2022-10-05T16:35:11.266Z,101856.20
2022-10-05T16:38:05.731Z,101859.00
2022-10-05T16:41:01.067Z,101859.00
2022-10-05T16:43:49.782Z,101856.60
2022-10-05T16:46:37.797Z,101863.00
2022-10-05T16:49:32.785Z,101863.60
2022-10-05T16:52:12.782Z,101866.40
2022-10-05T16:54:56.085Z,101869.80
2022-10-05T16:57:38.999Z,101871.40
2022-10-05T17:00:47.537Z,101875.40
2022-10-05T17:03:41.220Z,101875.60
2022-10-05T17:06:43.374Z,101876.80
2022-10-05T17:12:58.279Z,101884.00
2022-10-05T17:15:57.477Z,101883.00
2022-10-05T17:19:40.149Z,101889.00
2022-10-05T17:22:27.762Z,101897.60
2022-10-05T17:25:18.419Z,101900.20
2022-10-05T17:28:25.212Z,101897.00
2022-10-05T17:31:20.688Z,101898.40
2022-10-05T17:34:36.612Z,101897.00
2022-10-05T17:37:40.428Z,101894.40
2022-10-05T17:40:41.275Z,101896.80
2022-10-05T17:46:48.291Z,101903.80
2022-10-05T17:50:39.414Z,101899.40
2022-10-05T17:53:54.254Z,101903.60
2022-10-05T17:56:31.770Z,101900.40
2022-10-05T17:59:12.853Z,101902.20
2022-10-05T18:02:23.780Z,101900.40
2022-10-05T18:05:25.898Z,101897.80
2022-10-05T18:08:39.036Z,101897.20
2022-10-05T18:11:41.821Z,101897.00
2022-10-05T18:14:25.456Z,101901.00
2022-10-05T18:17:15.154Z,101902.80
2022-10-05T18:20:19.563Z,101904.00
2022-10-05T18:22:57.036Z,101900.60
2022-10-05T18:25:39.943Z,101900.60
2022-10-05T18:28:29.370Z,101898.00
2022-10-05T18:31:27.285Z,101897.00
2022-10-05T18:34:28.458Z,101904.60
2022-10-05T18:37:22.703Z,101907.20
2022-10-05T18:40:30.310Z,101907.00
2022-10-05T18:43:30.127Z,101903.60
2022-10-05T18:46:31.555Z,101903.80
2022-10-05T18:49:36.466Z,101901.60
2022-10-05T18:52:26.127Z,101901.40
2022-10-05T18:55:15.797Z,101903.60
2022-10-05T18:58:11.112Z,101902.80
2022-10-05T19:01:47.135Z,101901.80
2022-10-05T19:04:35.298Z,101902.40
2022-10-05T19:07:29.976Z,101899.80
2022-10-05T19:10:28.271Z,101902.40
2022-10-05T19:13:39.465Z,101902.60
2022-10-05T19:16:55.412Z,101903.20
2022-10-05T19:20:03.840Z,101911.80
2022-10-05T19:23:02.307Z,101906.40
2022-10-05T19:25:48.050Z,101906.80
2022-10-05T19:28:38.359Z,101912.00
2022-10-05T19:31:36.762Z,101910.20
2022-10-05T19:34:35.536Z,101908.40
2022-10-05T19:37:22.599Z,101905.40
2022-10-05T19:40:10.432Z,101906.60
2022-10-05T19:43:10.464Z,101907.20
2022-10-05T19:46:03.089Z,101907.60
2022-10-05T19:48:47.375Z,101908.20
2022-10-05T19:51:35.496Z,101912.80
2022-10-05T19:54:27.061Z,101915.60
2022-10-05T19:57:12.761Z,101917.40
2022-10-05T19:59:53.564Z,101915.60
2022-10-05T20:02:33.340Z,101920.40
2022-10-05T20:05:18.369Z,101919.20
2022-10-05T20:07:55.406Z,101922.00
2022-10-05T20:10:36.945Z,101925.80
2022-10-05T20:13:24.815Z,101925.60
2022-10-05T20:16:45.738Z,101928.80
2022-10-05T20:19:59.698Z,101933.00
2022-10-05T20:22:43.576Z,101936.20
2022-10-05T20:25:40.403Z,101935.60
2022-10-05T20:28:32.650Z,101931.20
2022-10-05T20:31:10.585Z,101933.20
2022-10-05T20:33:47.246Z,101937.80
2022-10-05T20:36:23.545Z,101937.40
2022-10-05T20:39:00.262Z,101939.00
2022-10-05T20:41:37.884Z,101937.40
2022-10-05T20:44:16.306Z,101935.60
2022-10-05T20:46:53.404Z,101940.60
2022-10-05T20:49:31.276Z,101941.40
2022-10-05T20:52:09.792Z,101944.00
2022-10-05T20:54:46.910Z,101948.20
2022-10-05T20:57:24.424Z,101948.80
2022-10-05T21:00:01.304Z,101947.20
2022-10-05T21:02:39.018Z,101946.20
2022-10-05T21:05:18.398Z,101949.80
2022-10-05T21:07:55.670Z,101950.80
2022-10-05T21:10:32.850Z,101948.60
2022-10-05T21:13:10.284Z,101949.00
2022-10-05T21:15:47.240Z,101947.40
2022-10-05T21:18:24.075Z,101944.40
2022-10-05T21:21:02.423Z,101943.20
2022-10-05T21:23:40.919Z,101942.80
2022-10-05T21:26:18.144Z,101943.00
2022-10-05T21:28:54.527Z,101943.00
2022-10-05T21:31:33.574Z,101938.00
2022-10-05T21:34:10.603Z,101942.40
2022-10-05T21:36:47.049Z,101940.60
2022-10-05T21:39:23.925Z,101938.00
2022-10-05T21:42:00.751Z,101937.20
2022-10-05T21:44:37.986Z,101936.00
2022-10-05T21:47:15.205Z,101934.00
2022-10-05T21:49:52.401Z,101935.60
2022-10-05T21:52:29.451Z,101935.20
2022-10-05T21:55:07.274Z,101932.00
2022-10-05T21:57:43.625Z,101930.00
2022-10-05T22:00:22.383Z,101928.00
2022-10-05T22:02:59.455Z,101922.00
2022-10-05T22:05:36.652Z,101925.60
2022-10-05T22:08:24.231Z,101922.00
2022-10-05T22:11:03.647Z,101922.00
2022-10-05T22:13:48.216Z,101918.00
2022-10-05T22:16:28.506Z,101920.60
2022-10-05T22:19:09.097Z,101922.20
2022-10-05T22:21:45.974Z,101917.20
2022-10-05T22:24:22.814Z,101917.00
2022-10-05T22:26:59.424Z,101915.40
2022-10-05T22:29:37.202Z,101917.80
2022-10-05T22:32:13.877Z,101915.80
2022-10-05T22:34:50.498Z,101914.60
2022-10-05T22:37:27.413Z,101906.40
2022-10-05T22:40:04.595Z,101905.40
2022-10-05T22:42:40.724Z,101903.40
2022-10-05T22:45:20.133Z,101899.40
2022-10-05T22:47:57.296Z,101898.40
2022-10-05T22:50:33.603Z,101896.00
2022-10-05T22:53:10.740Z,101891.60
2022-10-05T22:55:48.097Z,101891.00
2022-10-05T22:58:25.459Z,101887.00
2022-10-05T23:01:06.052Z,101889.20
2022-10-05T23:03:43.071Z,101890.80
2022-10-05T23:06:24.233Z,101888.60
2022-10-05T23:09:01.734Z,101891.20
2022-10-05T23:11:38.984Z,101885.80
2022-10-05T23:14:15.262Z,101885.20
2022-10-05T23:16:53.642Z,101883.60
2022-10-05T23:19:29.724Z,101887.80
2022-10-05T23:22:07.633Z,101880.80
2022-10-05T23:24:44.252Z,101884.60
2022-10-05T23:27:21.209Z,101883.00
2022-10-05T23:29:57.204Z,101881.80
2022-10-05T23:32:34.270Z,101885.80
2022-10-05T23:35:14.174Z,101887.00
2022-10-05T23:37:51.866Z,101889.40
2022-10-05T23:40:28.663Z,101889.00
2022-10-05T23:43:05.517Z,101887.80
2022-10-05T23:45:42.252Z,101882.80
2022-10-05T23:48:19.108Z,101888.80
2022-10-05T23:50:56.642Z,101888.00
2022-10-05T23:53:33.858Z,101883.60
2022-10-05T23:56:09.322Z,101881.40
2022-10-05T23:58:48.582Z,101879.80
